Time;durP1;ratioP1;P1;durP2;ratioP2;P2;SDS_P1;SDS_P2;PMS_P1;PMS_P2;Temp;Humidity;BMP_temperature;BMP_pressure;BME280_temperature;BME280_humidity;BME280_pressure;Samples;Min_cycle;Max_cycle;Signal;HPM_P1;HPM_P2
2022/06/28 00:00:36;;;;;;;0.00;0.00;;;11.70;99.90;;;;;;4867679;29;20516;-86
2022/06/28 00:03:01;;;;;;;0.17;0.17;;;11.50;99.90;;;;;;4881566;29;20049;-86
2022/06/28 00:05:27;;;;;;;0.00;0.00;;;11.60;99.90;;;;;;4878474;29;20476;-86
2022/06/28 00:07:53;;;;;;;0.00;0.00;;;11.50;99.90;;;;;;4878770;29;20073;-86
2022/06/28 00:10:19;;;;;;;0.28;0.28;;;11.90;99.90;;;;;;4862555;29;20169;-86
2022/06/28 00:12:44;;;;;;;0.20;0.20;;;11.60;99.90;;;;;;4864064;29;20484;-82
2022/06/28 00:16:16;;;;;;;0.10;0.10;;;11.60;99.90;;;;;;4879500;29;20040;-81
2022/06/28 00:18:07;;;;;;;0.55;0.45;;;11.60;99.90;;;;;;4871229;29;20376;-81
2022/06/28 00:20:33;;;;;;;0.10;0.10;;;11.50;99.90;;;;;;4894990;29;20045;-82
2022/06/28 00:22:58;;;;;;;0.00;0.00;;;11.50;99.90;;;;;;4878986;29;20059;-82
2022/06/28 00:25:24;;;;;;;0.38;0.38;;;11.50;99.90;;;;;;4863602;29;20053;-81
2022/06/28 00:27:50;;;;;;;0.50;0.50;;;11.50;99.90;;;;;;4893696;29;20045;-81
2022/06/28 00:30:15;;;;;;;0.10;0.10;;;11.50;99.90;;;;;;4863430;29;20399;-82
2022/06/28 00:32:41;;;;;;;0.40;0.40;;;11.50;99.90;;;;;;4894603;29;20045;-82
2022/06/28 00:35:07;;;;;;;0.00;0.00;;;11.50;99.90;;;;;;4894464;29;20064;-83
2022/06/28 00:37:33;;;;;;;0.00;0.00;;;11.50;99.90;;;;;;4889576;29;20108;-82
2022/06/28 00:39:59;;;;;;;0.30;0.30;;;11.40;99.90;;;;;;4876983;29;20488;-83
2022/06/28 00:42:25;;;;;;;0.22;0.22;;;11.50;99.90;;;;;;4858804;29;20045;-83
2022/06/28 00:44:53;;;;;;;0.30;0.30;;;11.50;99.90;;;;;;4878372;29;20045;-83
2022/06/28 00:47:19;;;;;;;0.10;0.10;;;11.40;99.90;;;;;;4862362;29;20040;-86
2022/06/28 00:49:45;;;;;;;0.20;0.20;;;11.40;99.90;;;;;;4862345;29;20041;-86
2022/06/28 00:52:13;;;;;;;0.10;0.10;;;11.40;99.90;;;;;;4894264;29;20100;-86
2022/06/28 00:54:39;;;;;;;0.28;0.28;;;11.30;99.90;;;;;;4877970;29;20053;-86
2022/06/28 00:57:05;;;;;;;0.85;0.45;;;11.40;99.90;;;;;;4853306;29;20052;-86
2022/06/28 00:59:31;;;;;;;0.00;0.00;;;11.40;99.90;;;;;;4858705;29;20453;-86
2022/06/28 01:01:58;;;;;;;0.17;0.17;;;11.30;99.90;;;;;;4877868;29;20056;-86
2022/06/28 01:04:24;;;;;;;0.60;0.60;;;11.30;99.90;;;;;;4861180;29;20496;-86
2022/06/28 01:06:50;;;;;;;0.08;0.08;;;11.30;99.90;;;;;;4877555;29;20124;-86
2022/06/28 01:09:15;;;;;;;0.20;0.20;;;11.30;99.90;;;;;;4861348;29;20500;-86
2022/06/28 01:11:41;;;;;;;0.25;0.20;;;12.00;99.90;;;;;;4859362;29;20046;-86
2022/06/28 01:14:07;;;;;;;0.20;0.20;;;11.80;99.90;;;;;;4869602;29;20041;-86
2022/06/28 01:16:33;;;;;;;0.17;0.17;;;11.30;99.90;;;;;;4878039;29;20101;-86
2022/06/28 01:18:59;;;;;;;0.00;0.00;;;11.30;99.90;;;;;;4876766;29;20128;-86
2022/06/28 01:21:28;;;;;;;0.00;0.00;;;11.30;99.90;;;;;;4878110;29;20377;-83
2022/06/28 01:23:54;;;;;;;0.10;0.10;;;11.20;99.90;;;;;;4879020;29;20108;-83
2022/06/28 01:26:21;;;;;;;0.03;0.03;;;11.10;99.90;;;;;;4863528;29;20055;-83
2022/06/28 01:28:48;;;;;;;0.10;0.10;;;11.10;99.90;;;;;;4859863;29;20152;-82
2022/06/28 01:31:16;;;;;;;0.47;0.47;;;11.10;99.90;;;;;;4871749;29;20120;-83
2022/06/28 01:33:42;;;;;;;0.03;0.03;;;11.10;99.90;;;;;;4876487;29;20654;-83
2022/06/28 01:36:09;;;;;;;0.00;0.00;;;11.10;99.90;;;;;;4873576;29;20047;-86
2022/06/28 01:38:36;;;;;;;0.10;0.10;;;11.10;99.90;;;;;;4870398;29;20404;-86
2022/06/28 01:41:02;;;;;;;0.05;0.05;;;11.00;99.90;;;;;;4855459;29;20045;-86
2022/06/28 01:43:29;;;;;;;0.10;0.10;;;11.00;99.90;;;;;;4834205;29;20041;-86
2022/06/28 01:45:56;;;;;;;0.03;0.03;;;11.00;99.90;;;;;;4876312;29;20045;-86
2022/06/28 01:48:22;;;;;;;0.10;0.10;;;11.00;99.90;;;;;;4892787;29;20415;-86
2022/06/28 01:50:48;;;;;;;0.20;0.20;;;11.00;99.90;;;;;;4876971;29;20041;-86
2022/06/28 01:53:14;;;;;;;0.05;0.05;;;11.00;99.90;;;;;;4876885;29;20041;-83
2022/06/28 01:55:41;;;;;;;0.10;0.10;;;11.00;99.90;;;;;;4868496;29;20069;-82
2022/06/28 01:58:07;;;;;;;0.38;0.38;;;10.90;99.90;;;;;;4863700;29;20040;-82
2022/06/28 02:00:33;;;;;;;0.20;0.20;;;10.90;99.90;;;;;;4857940;29;20057;-82
2022/06/28 02:02:59;;;;;;;0.10;0.10;;;10.90;99.90;;;;;;4877121;29;20060;-82
2022/06/28 02:05:25;;;;;;;0.00;0.00;;;10.90;99.90;;;;;;4892915;29;20053;-83
2022/06/28 02:07:52;;;;;;;0.22;0.22;;;10.90;99.90;;;;;;4869495;29;20049;-83
2022/06/28 02:10:19;;;;;;;0.00;0.00;;;10.90;99.90;;;;;;4875510;29;20069;-86
2022/06/28 02:12:45;;;;;;;0.10;0.10;;;10.80;99.90;;;;;;4893328;29;20041;-86
2022/06/28 02:15:12;;;;;;;1.00;0.85;;;10.80;99.90;;;;;;4862403;29;20045;-86
2022/06/28 02:17:38;;;;;;;0.30;0.30;;;10.70;99.90;;;;;;4877455;29;20037;-86
2022/06/28 02:20:04;;;;;;;0.00;0.00;;;10.70;99.90;;;;;;4842704;29;20042;-86
2022/06/28 02:22:30;;;;;;;0.05;0.05;;;10.60;99.90;;;;;;4869544;29;20131;-86
2022/06/28 02:24:56;;;;;;;0.13;0.13;;;10.60;99.90;;;;;;4865887;29;20437;-86
2022/06/28 02:27:22;;;;;;;0.20;0.20;;;10.70;99.90;;;;;;4865775;29;20144;-81
2022/06/28 02:29:47;;;;;;;0.00;0.00;;;10.70;99.90;;;;;;4880303;29;20143;-81
2022/06/28 02:32:14;;;;;;;0.00;0.00;;;10.70;99.90;;;;;;4870747;29;20492;-81
2022/06/28 02:40:21;;;;;;;0.15;0.15;;;10.60;99.90;;;;;;4895433;29;20131;-81
2022/06/28 02:43:00;;;;;;;0.08;0.08;;;10.70;99.90;;;;;;4881285;29;20063;-81
2022/06/28 02:45:32;;;;;;;0.20;0.20;;;10.70;99.90;;;;;;4896412;29;20045;-81
2022/06/28 02:47:59;;;;;;;0.00;0.00;;;10.70;99.90;;;;;;4880885;29;20045;-81
2022/06/28 02:50:25;;;;;;;0.00;0.00;;;10.60;99.90;;;;;;4877536;29;20361;-81
2022/06/28 02:52:51;;;;;;;0.03;0.03;;;10.70;99.90;;;;;;4875882;29;20075;-81
2022/06/28 02:55:17;;;;;;;0.00;0.00;;;10.60;99.90;;;;;;4895806;29;20052;-81
2022/06/28 02:57:44;;;;;;;0.20;0.20;;;11.20;99.90;;;;;;4846178;29;20049;-81
2022/06/28 03:00:13;;;;;;;0.00;0.00;;;10.60;99.90;;;;;;4846975;29;20070;-82
2022/06/28 03:02:41;;;;;;;0.10;0.10;;;10.60;99.90;;;;;;4868866;29;20057;-82
2022/06/28 03:05:10;;;;;;;0.20;0.20;;;11.30;99.90;;;;;;4879275;29;20037;-82
2022/06/28 03:07:36;;;;;;;0.20;0.20;;;10.60;99.90;;;;;;4893085;29;20048;-82
2022/06/28 03:10:02;;;;;;;0.10;0.10;;;10.70;99.90;;;;;;4880269;29;20546;-82
2022/06/28 03:12:28;;;;;;;0.20;0.20;;;10.70;99.90;;;;;;4877746;29;20045;-82
2022/06/28 03:14:54;;;;;;;0.00;0.00;;;10.70;99.90;;;;;;4873601;29;20045;-82
2022/06/28 03:17:20;;;;;;;0.17;0.17;;;10.70;99.90;;;;;;4879579;29;20045;-81
2022/06/28 03:19:46;;;;;;;0.30;0.30;;;10.70;99.90;;;;;;4874239;29;20127;-81
2022/06/28 03:22:11;;;;;;;0.10;0.10;;;10.70;99.90;;;;;;4874914;29;20056;-81
2022/06/28 03:24:37;;;;;;;0.13;0.13;;;10.60;99.90;;;;;;4877302;29;20063;-81
2022/06/28 03:27:03;;;;;;;0.00;0.00;;;10.80;99.90;;;;;;4876488;29;20100;-81
2022/06/28 03:29:29;;;;;;;0.30;0.30;;;10.60;99.90;;;;;;4876277;29;20386;-80
2022/06/28 03:31:54;;;;;;;0.00;0.00;;;10.50;99.90;;;;;;4853495;29;20044;-81
2022/06/28 03:34:20;;;;;;;0.00;0.00;;;10.60;99.90;;;;;;4871136;29;20056;-86
2022/06/28 03:36:52;;;;;;;0.10;0.10;;;10.60;99.90;;;;;;4856948;29;20052;-86
2022/06/28 03:39:18;;;;;;;0.43;0.30;;;10.70;99.90;;;;;;4868926;29;20052;-86
2022/06/28 03:41:44;;;;;;;0.00;0.00;;;11.30;99.90;;;;;;4881789;29;20040;-86
2022/06/28 03:44:10;;;;;;;0.10;0.10;;;10.80;99.90;;;;;;4848053;29;20041;-86
2022/06/28 03:46:36;;;;;;;0.10;0.10;;;11.50;99.90;;;;;;4863455;29;20037;-86
2022/06/28 03:49:01;;;;;;;0.00;0.00;;;10.70;99.90;;;;;;4879904;29;20101;-86
2022/06/28 03:51:27;;;;;;;0.00;0.00;;;10.70;99.90;;;;;;4876523;29;20041;-86
2022/06/28 03:53:53;;;;;;;0.30;0.30;;;10.70;99.90;;;;;;4873536;29;20042;-86
2022/06/28 03:56:19;;;;;;;0.00;0.00;;;10.70;99.90;;;;;;4866928;29;20408;-86
2022/06/28 03:58:44;;;;;;;0.10;0.10;;;10.70;99.90;;;;;;4877101;29;20041;-86
2022/06/28 04:01:10;;;;;;;0.00;0.00;;;10.80;99.90;;;;;;4856944;29;20112;-86
2022/06/28 04:03:36;;;;;;;0.00;0.00;;;10.70;99.90;;;;;;4875572;29;20057;-86
2022/06/28 04:06:02;;;;;;;0.20;0.20;;;10.90;99.90;;;;;;4865780;29;20440;-81
2022/06/28 04:08:29;;;;;;;0.00;0.00;;;10.80;99.90;;;;;;4875686;29;20100;-81
2022/06/28 04:13:40;;;;;;;0.00;0.00;;;10.90;99.90;;;;;;4893561;23;20112;-84
2022/06/28 04:16:06;;;;;;;0.10;0.10;;;11.00;99.90;;;;;;4880141;29;20041;-84
2022/06/28 04:18:32;;;;;;;0.10;0.10;;;11.10;99.90;;;;;;4895288;29;20045;-84
2022/06/28 04:20:58;;;;;;;0.10;0.10;;;11.10;99.90;;;;;;4893777;29;20111;-84
2022/06/28 04:23:24;;;;;;;0.20;0.20;;;11.20;99.90;;;;;;4879169;29;20399;-86
2022/06/28 04:25:50;;;;;;;0.00;0.00;;;11.20;99.90;;;;;;4896505;29;20041;-86
2022/06/28 04:28:16;;;;;;;0.00;0.00;;;11.20;99.90;;;;;;4897357;29;20091;-86
2022/06/28 04:30:41;;;;;;;0.00;0.00;;;11.40;99.90;;;;;;4879422;29;20048;-86
2022/06/28 04:33:07;;;;;;;0.00;0.00;;;11.40;99.90;;;;;;4881411;29;20472;-86
2022/06/28 04:35:33;;;;;;;0.25;0.22;;;11.40;99.90;;;;;;4880104;29;20044;-86
2022/06/28 04:37:58;;;;;;;0.10;0.10;;;11.50;99.90;;;;;;4881461;29;20048;-86
2022/06/28 04:40:24;;;;;;;0.00;0.00;;;11.70;99.90;;;;;;4881310;29;20044;-86
2022/06/28 04:42:50;;;;;;;0.32;0.32;;;11.70;99.90;;;;;;4895579;29;20041;-86
2022/06/28 04:45:16;;;;;;;0.00;0.00;;;11.70;99.90;;;;;;4894985;29;20048;-86
2022/06/28 04:47:42;;;;;;;0.00;0.00;;;11.80;99.90;;;;;;4896188;29;20104;-86
2022/06/28 04:50:08;;;;;;;0.60;0.60;;;11.90;99.90;;;;;;4896382;29;20040;-86
2022/06/28 04:52:36;;;;;;;0.10;0.10;;;12.00;99.90;;;;;;4896049;29;20092;-86
2022/06/28 04:55:03;;;;;;;0.05;0.05;;;12.10;99.90;;;;;;4896049;29;20146;-86
2022/06/28 04:57:28;;;;;;;0.00;0.00;;;12.20;99.90;;;;;;4878478;29;20048;-86
2022/06/28 04:59:54;;;;;;;0.20;0.20;;;12.30;99.90;;;;;;4878912;29;20048;-86
2022/06/28 05:02:20;;;;;;;0.00;0.00;;;12.40;99.90;;;;;;4878277;29;20506;-86
2022/06/28 05:04:46;;;;;;;0.10;0.10;;;12.50;99.90;;;;;;4897153;29;20084;-86
2022/06/28 05:07:12;;;;;;;0.03;0.03;;;12.60;99.90;;;;;;4896741;29;20071;-86
2022/06/28 05:09:37;;;;;;;0.00;0.00;;;12.70;99.90;;;;;;4870589;29;20069;-87
2022/06/28 05:12:04;;;;;;;0.10;0.10;;;12.90;99.90;;;;;;4895179;29;20057;-86
2022/06/28 05:14:29;;;;;;;0.20;0.20;;;13.00;99.90;;;;;;4892645;29;20061;-86
2022/06/28 05:16:55;;;;;;;0.08;0.05;;;13.10;99.90;;;;;;4886673;29;20112;-86
2022/06/28 05:19:21;;;;;;;0.10;0.10;;;13.20;99.90;;;;;;4881417;29;20404;-86
2022/06/28 05:21:46;;;;;;;0.05;0.05;;;13.30;99.90;;;;;;4893173;29;20052;-86
2022/06/28 05:24:12;;;;;;;0.28;0.28;;;13.40;99.90;;;;;;4895590;29;20127;-87
2022/06/28 05:26:38;;;;;;;2.60;0.32;;;13.60;99.90;;;;;;4897052;29;20048;-86
2022/06/28 05:29:03;;;;;;;0.00;0.00;;;13.80;99.90;;;;;;4910989;29;20043;-86
2022/06/28 05:31:29;;;;;;;0.17;0.17;;;14.40;99.90;;;;;;4879559;29;20036;-84
2022/06/28 05:33:55;;;;;;;0.80;0.40;;;15.40;99.90;;;;;;4895784;29;20553;-84
2022/06/28 05:36:21;;;;;;;0.20;0.20;;;16.40;99.90;;;;;;4881542;29;20127;-85
2022/06/28 05:38:47;;;;;;;0.10;0.10;;;17.40;99.90;;;;;;4881133;29;20120;-85
2022/06/28 05:41:13;;;;;;;0.25;0.25;;;18.30;99.90;;;;;;4893776;29;20088;-85
2022/06/28 05:43:39;;;;;;;0.30;0.30;;;19.10;99.90;;;;;;4892049;29;20124;-85
2022/06/28 05:46:05;;;;;;;0.05;0.05;;;19.80;99.90;;;;;;4871669;29;20127;-87
2022/06/28 05:48:31;;;;;;;0.10;0.10;;;20.40;99.90;;;;;;4890703;29;20084;-87
2022/06/28 05:50:56;;;;;;;0.57;0.57;;;21.00;99.90;;;;;;4896261;29;20392;-88
2022/06/28 05:53:22;;;;;;;0.00;0.00;;;21.40;99.90;;;;;;4881930;29;20471;-88
2022/06/28 05:55:48;;;;;;;0.00;0.00;;;21.80;99.90;;;;;;4895707;29;20071;-88
2022/06/28 05:58:14;;;;;;;0.20;0.20;;;22.30;99.90;;;;;;4892929;29;20476;-87
2022/06/28 06:00:39;;;;;;;0.43;0.28;;;22.90;99.90;;;;;;4887540;29;20045;-88
2022/06/28 06:03:06;;;;;;;0.22;0.22;;;23.30;99.90;;;;;;4895945;29;20049;-88
2022/06/28 06:05:32;;;;;;;0.10;0.10;;;23.60;99.90;;;;;;4885095;29;20399;-85
2022/06/28 06:07:58;;;;;;;0.13;0.13;;;24.00;99.90;;;;;;4899060;29;20124;-85
2022/06/28 06:10:23;;;;;;;0.10;0.10;;;24.30;99.90;;;;;;4886324;29;20116;-85
2022/06/28 06:12:49;;;;;;;0.10;0.10;;;24.80;99.90;;;;;;4889203;29;20053;-86
2022/06/28 06:15:15;;;;;;;0.90;0.30;;;25.10;99.90;;;;;;4897044;29;20069;-85
2022/06/28 06:17:41;;;;;;;0.00;0.00;;;25.40;99.90;;;;;;4860309;29;20045;-85
2022/06/28 06:20:08;;;;;;;0.50;0.50;;;25.50;99.90;;;;;;4884739;29;20505;-85
2022/06/28 06:22:34;;;;;;;0.30;0.30;;;25.70;99.90;;;;;;4883688;29;20052;-86
2022/06/28 06:25:00;;;;;;;0.20;0.20;;;26.00;99.90;;;;;;4900242;29;20049;-86
2022/06/28 06:27:26;;;;;;;0.20;0.20;;;26.20;99.90;;;;;;4900803;29;20048;-86
2022/06/28 06:29:51;;;;;;;0.03;0.03;;;26.40;99.90;;;;;;4900040;29;20039;-86
2022/06/28 06:32:17;;;;;;;0.20;0.20;;;26.50;99.90;;;;;;4899807;29;20036;-85
2022/06/28 06:34:43;;;;;;;0.20;0.20;;;26.60;99.90;;;;;;4899037;29;20080;-86
2022/06/28 06:37:08;;;;;;;0.50;0.50;;;26.50;99.90;;;;;;4898353;29;20041;-83
2022/06/28 06:39:34;;;;;;;0.20;0.20;;;26.50;99.90;;;;;;4884286;29;20077;-83
2022/06/28 06:42:00;;;;;;;0.30;0.30;;;26.70;99.90;;;;;;4878438;29;20051;-83
2022/06/28 06:44:26;;;;;;;0.10;0.10;;;27.00;99.50;;;;;;4897831;29;20048;-83
2022/06/28 06:46:52;;;;;;;0.20;0.20;;;27.30;98.10;;;;;;4884129;29;20080;-83
2022/06/28 06:49:18;;;;;;;0.10;0.10;;;27.70;98.40;;;;;;4865845;29;20488;-83
2022/06/28 06:51:48;;;;;;;0.00;0.00;;;27.70;97.70;;;;;;4850450;29;20044;-83
2022/06/28 06:54:15;;;;;;;0.32;0.32;;;27.80;97.80;;;;;;4879364;29;20163;-85
2022/06/28 06:56:41;;;;;;;0.10;0.10;;;27.70;99.10;;;;;;4898985;29;20048;-85
2022/06/28 06:59:08;;;;;;;0.20;0.20;;;27.90;98.80;;;;;;4899348;29;20036;-86
2022/06/28 07:01:34;;;;;;;0.10;0.10;;;28.00;96.90;;;;;;4880692;29;20100;-85
2022/06/28 07:04:01;;;;;;;0.10;0.10;;;27.60;97.20;;;;;;4865204;29;20560;-85
2022/06/28 07:06:26;;;;;;;0.20;0.20;;;26.70;96.80;;;;;;4848736;29;20047;-85
2022/06/28 07:08:52;;;;;;;0.10;0.10;;;25.70;97.80;;;;;;4892470;29;20041;-85
2022/06/28 07:11:18;;;;;;;0.10;0.10;;;25.20;98.40;;;;;;4865051;29;20045;-83
2022/06/28 07:13:44;;;;;;;0.43;0.30;;;25.30;99.90;;;;;;4887828;29;20068;-83
2022/06/28 07:16:09;;;;;;;0.30;0.30;;;24.70;99.40;;;;;;4882455;29;20140;-83
2022/06/28 07:18:35;;;;;;;0.13;0.13;;;23.80;98.50;;;;;;4899870;29;20048;-83
2022/06/28 07:21:01;;;;;;;0.60;0.60;;;23.70;99.30;;;;;;4883737;29;20060;-83
2022/06/28 07:23:27;;;;;;;0.00;0.00;;;23.00;99.40;;;;;;4896182;29;20053;-83
2022/06/28 07:25:53;;;;;;;0.20;0.20;;;22.50;99.90;;;;;;4875866;29;20048;-83
2022/06/28 07:28:18;;;;;;;0.08;0.08;;;23.50;99.90;;;;;;4883583;29;20044;-84
2022/06/28 07:30:46;;;;;;;0.08;0.08;;;24.60;99.90;;;;;;4898717;29;20044;-84
2022/06/28 07:33:12;;;;;;;0.10;0.10;;;26.00;97.40;;;;;;4886521;29;20049;-84
2022/06/28 07:35:38;;;;;;;0.10;0.10;;;27.30;96.60;;;;;;4894415;29;20040;-84
2022/06/28 07:38:04;;;;;;;0.45;0.32;;;28.60;96.80;;;;;;4888216;29;20096;-84
2022/06/28 07:40:29;;;;;;;1.35;0.90;;;29.40;92.50;;;;;;4882974;29;20100;-85
2022/06/28 07:42:55;;;;;;;0.10;0.10;;;30.10;92.40;;;;;;4883980;29;20044;-85
2022/06/28 07:45:21;;;;;;;0.10;0.10;;;29.60;92.40;;;;;;4880399;29;20044;-84
2022/06/28 07:47:49;;;;;;;0.10;0.10;;;28.10;91.60;;;;;;4898582;29;20037;-85
2022/06/28 07:53:03;;;;;;;3.97;1.10;;;24.70;94.00;;;;;;4897970;29;20053;-84
2022/06/28 07:55:29;;;;;;;0.32;0.32;;;22.90;95.50;;;;;;4898577;29;20415;-84
2022/06/28 07:57:55;;;;;;;0.10;0.10;;;23.20;97.50;;;;;;4898983;29;20048;-84
2022/06/28 08:00:21;;;;;;;0.68;0.68;;;24.50;96.10;;;;;;4896642;29;20480;-84
2022/06/28 08:02:48;;;;;;;0.10;0.10;;;26.00;94.60;;;;;;4876290;29;20044;-84
2022/06/28 08:05:14;;;;;;;0.20;0.20;;;27.50;93.70;;;;;;4898382;29;20445;-84
2022/06/28 08:07:40;;;;;;;0.10;0.10;;;28.70;91.80;;;;;;4882935;29;20115;-84
2022/06/28 08:10:07;;;;;;;0.20;0.20;;;29.50;89.60;;;;;;4867739;29;20128;-84
2022/06/28 08:12:33;;;;;;;0.45;0.45;;;28.70;86.00;;;;;;4880500;29;20123;-84
2022/06/28 08:14:59;;;;;;;0.22;0.13;;;29.00;87.80;;;;;;4879747;29;20532;-84
2022/06/28 08:17:24;;;;;;;0.10;0.10;;;29.50;88.20;;;;;;4848998;29;20080;-83
2022/06/28 08:19:50;;;;;;;0.10;0.10;;;30.40;90.30;;;;;;4868563;29;20249;-83
2022/06/28 08:22:16;;;;;;;0.10;0.10;;;31.40;87.60;;;;;;4884301;29;20036;-83
2022/06/28 08:24:42;;;;;;;0.32;0.32;;;30.50;85.90;;;;;;4880406;29;20087;-83
2022/06/28 08:27:08;;;;;;;0.30;0.30;;;28.80;85.30;;;;;;4898225;29;20033;-83
2022/06/28 08:29:34;;;;;;;0.20;0.20;;;28.20;86.00;;;;;;4896345;29;20047;-83
2022/06/28 08:32:01;;;;;;;0.20;0.20;;;28.50;86.50;;;;;;4880136;29;20206;-83
2022/06/28 08:34:27;;;;;;;0.10;0.10;;;29.40;85.80;;;;;;4882423;29;20385;-84
2022/06/28 08:36:53;;;;;;;0.10;0.10;;;30.50;86.30;;;;;;4882095;29;20051;-85
2022/06/28 08:39:19;;;;;;;0.10;0.10;;;31.40;83.30;;;;;;4897537;29;20123;-85
2022/06/28 08:41:46;;;;;;;0.17;0.15;;;32.10;77.60;;;;;;4897784;29;20095;-85
2022/06/28 08:44:13;;;;;;;0.10;0.10;;;32.60;76.80;;;;;;4897573;29;20487;-85
2022/06/28 08:46:40;;;;;;;0.80;0.70;;;32.90;75.40;;;;;;4896533;29;20052;-85
2022/06/28 08:49:41;;;;;;;0.20;0.20;;;33.00;72.10;;;;;;4897545;29;20045;-85
2022/06/28 08:52:08;;;;;;;0.10;0.10;;;32.80;74.50;;;;;;4877131;29;20055;-84
2022/06/28 08:54:35;;;;;;;0.10;0.10;;;32.30;72.90;;;;;;4897386;29;20044;-85
2022/06/28 08:57:04;;;;;;;0.00;0.00;;;30.70;71.80;;;;;;4895295;29;20079;-84
2022/06/28 08:59:30;;;;;;;0.22;0.22;;;28.70;75.10;;;;;;4882086;29;20466;-84
2022/06/28 09:01:56;;;;;;;1.40;1.27;;;28.70;76.80;;;;;;4885089;29;20076;-85
2022/06/28 09:04:22;;;;;;;0.13;0.13;;;29.20;75.50;;;;;;4877997;29;20432;-84
2022/06/28 09:06:48;;;;;;;0.15;0.15;;;30.00;76.20;;;;;;4897671;29;20402;-85
2022/06/28 09:09:13;;;;;;;0.63;0.63;;;29.00;74.80;;;;;;4893760;29;20041;-84
2022/06/28 09:11:43;;;;;;;0.25;0.20;;;29.10;77.10;;;;;;4893975;29;20548;-85
2022/06/28 09:14:28;;;;;;;0.35;0.35;;;29.90;77.40;;;;;;4894003;29;20088;-84
2022/06/28 09:16:54;;;;;;;0.20;0.20;;;30.30;77.70;;;;;;4879281;29;20037;-84
2022/06/28 09:19:40;;;;;;;0.20;0.20;;;31.20;73.90;;;;;;4873619;29;20044;-84
2022/06/28 09:22:06;;;;;;;0.20;0.20;;;31.00;74.40;;;;;;4879907;29;20560;-84
2022/06/28 09:24:33;;;;;;;0.10;0.10;;;30.70;71.50;;;;;;4891678;29;20634;-83
2022/06/28 09:27:06;;;;;;;0.22;0.22;;;29.90;71.90;;;;;;4895783;29;20483;-83
2022/06/28 09:29:49;;;;;;;0.20;0.20;;;30.00;76.10;;;;;;4888047;29;20041;-84
2022/06/28 09:32:15;;;;;;;0.10;0.10;;;30.20;75.30;;;;;;4891371;29;20119;-83
2022/06/28 09:34:54;;;;;;;0.10;0.10;;;30.70;75.50;;;;;;4895470;29;20036;-83
2022/06/28 09:37:36;;;;;;;0.35;0.35;;;31.30;75.70;;;;;;4900280;29;20120;-84
2022/06/28 09:40:18;;;;;;;0.10;0.10;;;31.90;74.90;;;;;;4902853;29;20428;-83
2022/06/28 09:42:46;;;;;;;0.20;0.20;;;32.80;71.50;;;;;;4885949;29;20044;-84
2022/06/28 09:45:15;;;;;;;0.35;0.35;;;33.10;70.20;;;;;;4884324;29;20045;-84
2022/06/28 09:47:46;;;;;;;0.95;0.32;;;33.30;71.50;;;;;;4901114;29;20427;-84
2022/06/28 09:50:17;;;;;;;0.10;0.10;;;33.70;69.50;;;;;;4884212;29;20037;-83
2022/06/28 09:52:45;;;;;;;0.82;0.82;;;34.00;66.40;;;;;;4887082;29;20052;-84
2022/06/28 09:55:14;;;;;;;0.30;0.30;;;34.30;68.50;;;;;;4883346;29;20045;-84
2022/06/28 09:57:42;;;;;;;0.10;0.10;;;34.10;69.10;;;;;;4869326;29;20033;-83
2022/06/28 10:00:08;;;;;;;0.20;0.20;;;32.50;67.00;;;;;;4899020;29;20104;-84
2022/06/28 10:02:35;;;;;;;0.20;0.20;;;32.20;70.60;;;;;;4873944;29;20124;-84
2022/06/28 10:05:01;;;;;;;0.22;0.22;;;31.00;71.50;;;;;;4857445;29;20055;-84
2022/06/28 10:07:34;;;;;;;0.10;0.10;;;31.30;69.60;;;;;;4880369;29;20037;-84
2022/06/28 10:10:01;;;;;;;0.10;0.10;;;32.00;70.80;;;;;;4900938;29;20044;-84
2022/06/28 10:15:21;;;;;;;0.20;0.20;;;33.20;69.50;;;;;;4882698;29;20449;-85
2022/06/28 10:17:47;;;;;;;0.22;0.22;;;34.10;69.20;;;;;;4882674;29;20370;-85
2022/06/28 10:20:18;;;;;;;0.20;0.20;;;33.60;67.90;;;;;;4894016;29;20040;-85
2022/06/28 10:22:43;;;;;;;0.28;0.28;;;32.60;66.50;;;;;;4897961;29;20105;-85
2022/06/28 10:25:18;;;;;;;0.35;0.35;;;32.80;66.80;;;;;;4900856;29;20041;-85
2022/06/28 10:27:49;;;;;;;2.55;0.30;;;32.70;67.40;;;;;;4899058;29;20041;-85
2022/06/28 10:30:14;;;;;;;0.10;0.10;;;32.90;64.80;;;;;;4882328;29;20413;-86
2022/06/28 10:33:02;;;;;;;0.15;0.15;;;33.20;65.30;;;;;;4896871;29;20101;-87
2022/06/28 10:35:31;;;;;;;1.20;0.70;;;33.40;64.80;;;;;;4883687;29;20056;-87
2022/06/28 10:38:09;;;;;;;0.10;0.10;;;33.30;64.60;;;;;;4873605;29;20056;-86
2022/06/28 10:40:38;;;;;;;0.55;0.55;;;33.20;64.50;;;;;;4900568;29;20131;-87
2022/06/28 10:43:04;;;;;;;0.10;0.10;;;33.10;64.30;;;;;;4900653;29;20139;-86
2022/06/28 10:46:04;;;;;;;0.25;0.25;;;32.00;63.90;;;;;;4878970;29;20080;-86
2022/06/28 10:48:31;;;;;;;0.17;0.17;;;31.40;64.70;;;;;;4880095;29;20108;-85
2022/06/28 10:51:02;;;;;;;0.20;0.17;;;31.80;66.50;;;;;;4893924;29;20037;-85
2022/06/28 10:53:33;;;;;;;0.20;0.20;;;32.40;65.10;;;;;;4892531;29;20041;-86
2022/06/28 10:56:14;;;;;;;0.03;0.03;;;32.70;64.20;;;;;;4880864;29;20049;-85
2022/06/28 10:59:05;;;;;;;0.10;0.10;;;32.80;63.00;;;;;;4892641;29;20504;-86
2022/06/28 11:01:40;;;;;;;0.20;0.20;;;33.00;63.90;;;;;;4894085;29;20479;-85
2022/06/28 11:04:23;;;;;;;0.20;0.20;;;33.30;64.20;;;;;;4864602;29;20040;-84
2022/06/28 11:07:00;;;;;;;0.15;0.15;;;34.10;65.60;;;;;;4879865;29;20052;-84
2022/06/28 11:09:32;;;;;;;0.10;0.10;;;34.70;65.00;;;;;;4879513;29;20049;-84
2022/06/28 11:12:13;;;;;;;0.10;0.10;;;34.20;63.30;;;;;;4897115;29;20127;-84
2022/06/28 11:14:47;;;;;;;0.30;0.20;;;34.00;62.40;;;;;;4886129;29;20139;-84
2022/06/28 11:17:18;;;;;;;0.10;0.10;;;33.70;61.20;;;;;;4866656;29;20048;-84
2022/06/28 11:19:56;;;;;;;0.50;0.50;;;33.60;61.50;;;;;;4883655;29;20057;-85
2022/06/28 11:22:26;;;;;;;0.20;0.20;;;33.80;62.80;;;;;;4891119;29;20153;-85
2022/06/28 11:24:53;;;;;;;0.10;0.10;;;33.60;62.20;;;;;;4899111;29;20048;-86
2022/06/28 11:27:22;;;;;;;0.10;0.10;;;32.20;62.00;;;;;;4898750;29;20507;-85
2022/06/28 11:30:02;;;;;;;0.10;0.10;;;30.50;62.90;;;;;;4898745;29;20052;-85
2022/06/28 11:32:36;;;;;;;0.10;0.10;;;30.10;65.40;;;;;;4880587;29;20400;-85
2022/06/28 11:35:18;;;;;;;0.10;0.10;;;30.40;65.20;;;;;;4866882;29;20048;-85
2022/06/28 11:37:54;;;;;;;0.10;0.10;;;29.80;66.90;;;;;;4880233;29;20048;-84
2022/06/28 11:40:22;;;;;;;0.03;0.03;;;29.30;65.50;;;;;;4880050;29;20067;-84
2022/06/28 11:43:05;;;;;;;0.20;0.20;;;29.00;66.20;;;;;;4896539;29;20076;-84
2022/06/28 11:45:35;;;;;;;1.13;1.05;;;28.50;66.50;;;;;;4894366;29;20419;-84
2022/06/28 11:48:11;;;;;;;0.10;0.10;;;28.80;67.80;;;;;;4890323;29;20076;-84
2022/06/28 11:50:46;;;;;;;0.10;0.10;;;28.90;68.10;;;;;;4895820;29;20518;-84
2022/06/28 11:53:13;;;;;;;0.00;0.00;;;29.40;66.80;;;;;;4883807;29;20061;-84
2022/06/28 11:55:43;;;;;;;0.10;0.10;;;29.30;68.60;;;;;;4886972;29;20056;-84
2022/06/28 11:58:13;;;;;;;0.00;0.00;;;29.80;66.30;;;;;;4876808;29;20548;-84
2022/06/28 12:00:39;;;;;;;1.08;0.63;;;30.50;68.30;;;;;;4877821;29;20049;-84
2022/06/28 12:03:05;;;;;;;0.08;0.08;;;31.10;66.50;;;;;;4849284;29;20136;-84
2022/06/28 12:05:35;;;;;;;0.08;0.08;;;31.70;65.40;;;;;;4888945;29;20049;-84
2022/06/28 12:08:02;;;;;;;0.43;0.25;;;32.20;64.80;;;;;;4864259;29;20045;-84
2022/06/28 12:10:31;;;;;;;0.20;0.20;;;32.40;62.60;;;;;;4880338;29;20041;-86
2022/06/28 12:13:09;;;;;;;0.20;0.20;;;32.60;63.50;;;;;;4891269;29;20186;-86
2022/06/28 12:15:35;;;;;;;0.17;0.17;;;32.90;64.60;;;;;;4895458;29;20052;-86
2022/06/28 12:18:03;;;;;;;0.00;0.00;;;32.80;62.80;;;;;;4881596;29;20040;-86
2022/06/28 12:20:31;;;;;;;0.52;0.52;;;32.20;62.50;;;;;;4882244;29;20054;-86
2022/06/28 12:23:05;;;;;;;0.10;0.10;;;31.20;63.10;;;;;;4866586;29;20104;-86
2022/06/28 12:25:31;;;;;;;0.00;0.00;;;31.20;64.50;;;;;;4897010;29;20052;-86
2022/06/28 12:27:56;;;;;;;0.10;0.10;;;31.50;63.30;;;;;;4897750;29;20109;-85
2022/06/28 12:30:22;;;;;;;0.10;0.10;;;31.60;62.60;;;;;;4881907;29;20375;-85
2022/06/28 12:32:49;;;;;;;2.50;0.63;;;31.50;65.10;;;;;;4897099;29;20079;-85
2022/06/28 12:35:16;;;;;;;1.60;1.08;;;31.30;65.10;;;;;;4898339;29;20052;-85
2022/06/28 12:37:42;;;;;;;0.47;0.47;;;30.60;65.10;;;;;;4874586;29;20047;-85
2022/06/28 12:40:09;;;;;;;0.22;0.22;;;30.00;65.40;;;;;;4883050;29;20480;-85
2022/06/28 12:42:36;;;;;;;0.10;0.10;;;30.40;64.80;;;;;;4878324;29;20104;-85
2022/06/28 12:45:02;;;;;;;0.20;0.20;;;30.50;63.50;;;;;;4885079;29;20060;-83
2022/06/28 12:47:36;;;;;;;0.45;0.45;;;29.90;63.90;;;;;;4894119;29;20066;-83
2022/06/28 12:50:05;;;;;;;0.70;0.22;;;28.90;64.10;;;;;;4912791;29;20048;-83
2022/06/28 12:52:32;;;;;;;0.10;0.10;;;27.90;65.30;;;;;;4913105;29;20115;-83
2022/06/28 12:54:58;;;;;;;0.85;0.38;;;27.20;66.80;;;;;;4912922;29;20131;-83
2022/06/28 12:57:28;;;;;;;0.70;0.43;;;26.90;68.40;;;;;;4891830;29;20510;-83
2022/06/28 12:59:55;;;;;;;0.35;0.22;;;27.50;67.90;;;;;;4892642;29;20517;-85
2022/06/28 13:02:20;;;;;;;0.00;0.00;;;28.30;67.00;;;;;;4896704;29;20063;-86
2022/06/28 13:04:47;;;;;;;0.10;0.10;;;28.70;68.30;;;;;;4896639;29;20492;-86